TimeCEST,TemperatureF,Dew PointF,Humidity,Sea Level PressureIn,VisibilityMPH,Wind Direction,Wind SpeedMPH,Gust SpeedMPH,PrecipitationIn,Events,Conditions,WindDirDegrees,DateUTC
12:00 AM,62.6,53.6,72,29.92,-9999.0,NE,8.1,-,N/A,,Clear,40,2013-06-16 22:00:00
12:30 AM,60.8,53.6,77,29.92,-9999.0,NE,8.1,-,N/A,,Clear,40,2013-06-16 22:30:00
1:00 AM,60.8,53.6,77,29.92,-9999.0,NE,6.9,-,N/A,,Clear,40,2013-06-16 23:00:00
1:30 AM,59.0,53.6,82,29.89,-9999.0,NE,8.1,-,N/A,,Clear,40,2013-06-16 23:30:00
2:00 AM,60.8,53.6,77,29.89,-9999.0,NE,8.1,-,N/A,,Clear,40,2013-06-17 00:00:00
2:30 AM,59.0,53.6,82,29.86,-9999.0,NNE,9.2,-,N/A,,Clear,30,2013-06-17 00:30:00
3:00 AM,59.0,53.6,82,29.86,-9999.0,NNE,8.1,-,N/A,,Clear,20,2013-06-17 01:00:00
3:30 AM,59.0,53.6,82,29.86,-9999.0,North,10.4,-,N/A,,Clear,10,2013-06-17 01:30:00
4:00 AM,59.0,51.8,77,29.86,-9999.0,North,10.4,-,N/A,,Clear,10,2013-06-17 02:00:00
4:30 AM,59.0,51.8,77,29.83,-9999.0,North,11.5,-,N/A,,Clear,10,2013-06-17 02:30:00
5:00 AM,59.0,51.8,77,29.83,-9999.0,North,10.4,-,N/A,,Clear,10,2013-06-17 03:00:00
5:30 AM,59.0,51.8,77,29.83,-9999.0,North,10.4,-,N/A,,Clear,10,2013-06-17 03:30:00
6:00 AM,59.0,51.8,77,29.83,-9999.0,NNE,9.2,-,N/A,,Clear,20,2013-06-17 04:00:00
6:30 AM,60.8,51.8,72,29.83,-9999.0,Variable,10.4,-,N/A,,Clear,0,2013-06-17 04:30:00
7:00 AM,59.0,51.8,77,29.86,-9999.0,North,10.4,-,N/A,,Clear,10,2013-06-17 05:00:00
7:30 AM,59.0,51.8,77,29.86,6.2,NNE,11.5,-,N/A,,Mostly Cloudy,20,2013-06-17 05:30:00
8:00 AM,59.0,53.6,82,29.83,6.2,North,11.5,24.2,N/A,,Mostly Cloudy,10,2013-06-17 06:00:00
8:30 AM,57.2,53.6,88,29.83,6.2,North,12.7,-,N/A,Rain,Light Rain Showers,10,2013-06-17 06:30:00
9:00 AM,57.2,53.6,88,29.80,6.2,NNE,13.8,-,N/A,Rain,Light Rain Showers,20,2013-06-17 07:00:00
9:30 AM,59.0,55.4,88,29.86,3.7,Variable,12.7,31.1,N/A,Rain-Thunderstorm,Thunderstorms and Rain,0,2013-06-17 07:30:00
10:00 AM,59.0,57.2,94,29.80,6.2,NE,16.1,-,N/A,Rain-Thunderstorm,Light Thunderstorms and Rain,50,2013-06-17 08:00:00
10:30 AM,60.8,59.0,94,29.77,3.1,North,9.2,-,N/A,Rain,Light Rain Showers,10,2013-06-17 08:30:00
11:00 AM,62.6,60.8,94,29.83,6.2,SE,8.1,-,N/A,,Mostly Cloudy,140,2013-06-17 09:00:00
11:30 AM,59.0,57.2,94,29.86,1.2,WNW,17.3,29.9,N/A,Rain-Thunderstorm,Thunderstorms and Rain,300,2013-06-17 09:30:00
12:00 PM,60.8,59.0,94,29.80,5.0,NE,11.5,-,N/A,,Mostly Cloudy,40,2013-06-17 10:00:00
12:30 PM,64.4,62.6,94,29.83,6.2,ENE,10.4,-,N/A,,Mostly Cloudy,60,2013-06-17 10:30:00
1:00 PM,68.0,62.6,83,29.83,6.2,ENE,12.7,-,N/A,,Mostly Cloudy,60,2013-06-17 11:00:00
1:30 PM,69.8,62.6,78,29.83,-9999.0,East,13.8,-,N/A,,Clear,80,2013-06-17 11:30:00
2:00 PM,71.6,62.6,73,29.83,6.2,East,11.5,-,N/A,,Mostly Cloudy,80,2013-06-17 12:00:00
2:30 PM,73.4,64.4,73,29.83,-9999.0,East,10.4,-,N/A,,Clear,80,2013-06-17 12:30:00
3:00 PM,75.2,62.6,65,29.80,-9999.0,ENE,9.2,-,N/A,,Clear,70,2013-06-17 13:00:00
3:30 PM,77.0,64.4,65,29.80,-9999.0,ENE,11.5,-,N/A,,Clear,70,2013-06-17 13:30:00
4:00 PM,77.0,64.4,65,29.80,6.2,ENE,10.4,-,N/A,,Mostly Cloudy,70,2013-06-17 14:00:00
4:30 PM,77.0,64.4,65,29.80,6.2,East,9.2,-,N/A,,Mostly Cloudy,100,2013-06-17 14:30:00
4:47 PM,77.0,66.2,69,29.80,6.2,ESE,6.9,-,N/A,Rain,Light Rain Showers,110,2013-06-17 14:47:00
5:00 PM,77.0,66.2,69,29.83,6.2,East,6.9,-,N/A,Rain,Light Rain Showers,80,2013-06-17 15:00:00
5:30 PM,75.2,68.0,78,29.83,6.2,West,3.5,-,N/A,Rain,Light Rain Showers,270,2013-06-17 15:30:00
6:00 PM,75.2,68.0,78,29.83,6.2,Variable,3.5,-,N/A,Rain,Light Rain Showers,0,2013-06-17 16:00:00
6:30 PM,73.4,68.0,83,29.86,6.2,Variable,2.3,15.0,N/A,Rain,Light Rain Showers,0,2013-06-17 16:30:00
7:00 PM,73.4,68.0,83,29.83,6.2,Variable,2.3,-,N/A,Rain,Light Rain Showers,0,2013-06-17 17:00:00
7:30 PM,75.2,68.0,78,29.86,6.2,Variable,3.5,-,N/A,Rain,Light Rain Showers,0,2013-06-17 17:30:00
8:00 PM,73.4,68.0,83,29.86,-9999.0,Calm,Calm,-,N/A,,Clear,0,2013-06-17 18:00:00
8:30 PM,73.4,66.2,78,29.89,-9999.0,SW,5.8,-,N/A,,Clear,230,2013-06-17 18:30:00
9:00 PM,73.4,68.0,83,29.86,-9999.0,Calm,Calm,-,N/A,,Clear,0,2013-06-17 19:00:00
9:30 PM,73.4,64.4,73,29.92,-9999.0,SSW,8.1,-,N/A,,Clear,210,2013-06-17 19:30:00
10:00 PM,73.4,59.0,61,29.92,-9999.0,SSW,17.3,-,N/A,,Clear,210,2013-06-17 20:00:00
10:30 PM,71.6,59.0,64,29.95,6.2,SW,8.1,-,N/A,Rain,Light Rain Showers,230,2013-06-17 20:30:00
11:00 PM,69.8,59.0,68,29.95,6.2,Variable,6.9,-,N/A,Rain,Light Rain Showers,0,2013-06-17 21:00:00
11:30 PM,69.8,59.0,68,29.92,6.2,SSE,4.6,-,N/A,Rain,Light Rain Showers,150,2013-06-17 21:30:00